Time;durP1;ratioP1;P1;durP2;ratioP2;P2;SDS_P1;SDS_P2;PMS_P1;PMS_P2;Temp;Humidity;BMP_temperature;BMP_pressure;BME280_temperature;BME280_humidity;BME280_pressure;Samples;Min_cycle;Max_cycle;Signal;HPM_P1;HPM_P2
2024/03/01 00:00:05;;;;;;;;;;;;;;;7.14;78.75;101708.33;107555;1254;111671;-64
2024/03/01 00:02:34;;;;;;;;;;;;;;;7.12;78.94;101695.77;107619;1254;108194;-65
2024/03/01 00:05:03;;;;;;;;;;;;;;;7.11;78.84;101698.52;107616;1254;107040;-63
2024/03/01 00:07:31;;;;;;;;;;;;;;;7.06;78.73;101700.76;107580;1254;97703;-64
2024/03/01 00:09:59;;;;;;;;;;;;;;;7.01;78.66;101694.81;107660;1254;97143;-64
2024/03/01 00:12:28;;;;;;;;;;;;;;;6.98;78.85;101691.07;107550;1254;110699;-62
2024/03/01 00:14:56;;;;;;;;;;;;;;;6.95;79.08;101696.66;107591;1257;107744;-62
2024/03/01 00:17:24;;;;;;;;;;;;;;;6.92;78.89;101708.00;107637;1256;107265;-61
2024/03/01 00:19:52;;;;;;;;;;;;;;;6.90;78.93;101699.40;107604;1253;98010;-64
2024/03/01 00:22:20;;;;;;;;;;;;;;;6.87;79.56;101689.55;107577;1254;97921;-64
2024/03/01 00:24:48;;;;;;;;;;;;;;;6.89;79.66;101694.62;107584;1253;111770;-63
2024/03/01 00:27:17;;;;;;;;;;;;;;;6.92;79.42;101697.67;107646;1251;108387;-67
2024/03/01 00:29:45;;;;;;;;;;;;;;;6.94;79.33;101696.48;107541;1254;107586;-64
2024/03/01 00:32:13;;;;;;;;;;;;;;;6.96;79.31;101697.81;107444;1251;97909;-63
2024/03/01 00:34:41;;;;;;;;;;;;;;;6.97;79.33;101701.31;107493;1251;97889;-63
2024/03/01 00:37:09;;;;;;;;;;;;;;;7.00;79.07;101708.08;107490;1254;111573;-64
2024/03/01 00:39:37;;;;;;;;;;;;;;;7.00;79.15;101698.23;107512;1251;108367;-63
2024/03/01 00:42:06;;;;;;;;;;;;;;;7.01;79.01;101696.96;107493;1253;109285;-63
2024/03/01 00:44:34;;;;;;;;;;;;;;;6.99;78.96;101712.95;107630;1255;97823;-62
2024/03/01 00:47:02;;;;;;;;;;;;;;;6.98;79.04;101713.77;107689;1254;97921;-63
2024/03/01 00:49:31;;;;;;;;;;;;;;;6.96;78.97;101703.16;107658;1251;111159;-62
2024/03/01 00:51:59;;;;;;;;;;;;;;;6.93;79.64;101689.09;107491;1251;108545;-62
2024/03/01 00:54:27;;;;;;;;;;;;;;;6.87;79.51;101696.50;107448;1251;108270;-65
2024/03/01 00:56:56;;;;;;;;;;;;;;;6.86;79.50;101693.00;107488;1251;97825;-63
2024/03/01 00:59:24;;;;;;;;;;;;;;;6.88;79.91;101695.02;107608;1254;97912;-62
2024/03/01 01:01:52;;;;;;;;;;;;;;;6.92;80.41;101687.16;107587;1254;111429;-62
2024/03/01 01:04:21;;;;;;;;;;;;;;;6.94;80.49;101680.06;107578;1254;108103;-62
2024/03/01 01:06:49;;;;;;;;;;;;;;;6.97;80.45;101669.55;107597;1256;107064;-63
2024/03/01 01:09:17;;;;;;;;;;;;;;;6.97;80.51;101665.98;107592;1254;97917;-64
2024/03/01 01:11:46;;;;;;;;;;;;;;;6.97;80.61;101666.19;107514;1251;97928;-63
2024/03/01 01:14:15;;;;;;;;;;;;;;;6.93;80.60;101654.10;107651;1256;111402;-63
2024/03/01 01:16:43;;;;;;;;;;;;;;;6.86;80.57;101638.28;107579;1254;108688;-63
2024/03/01 01:19:11;;;;;;;;;;;;;;;6.79;80.59;101633.89;107599;1254;108003;-63
2024/03/01 01:21:40;;;;;;;;;;;;;;;6.72;80.81;101632.50;107622;1254;97835;-64
2024/03/01 01:24:08;;;;;;;;;;;;;;;6.70;80.82;101636.90;107631;1253;97839;-65
2024/03/01 01:26:36;;;;;;;;;;;;;;;6.68;80.80;101633.80;107681;1257;111502;-63
2024/03/01 01:29:05;;;;;;;;;;;;;;;6.67;80.84;101637.59;107606;1255;108139;-63
2024/03/01 01:31:33;;;;;;;;;;;;;;;6.63;80.86;101651.92;107585;1254;106941;-63
2024/03/01 01:34:01;;;;;;;;;;;;;;;6.65;81.42;101650.72;107654;1254;97830;-63
2024/03/01 01:36:30;;;;;;;;;;;;;;;6.69;81.70;101632.17;107652;1254;97739;-63
2024/03/01 01:38:58;;;;;;;;;;;;;;;6.71;81.83;101635.05;107599;1253;110856;-63
2024/03/01 01:41:26;;;;;;;;;;;;;;;6.72;81.82;101637.68;107634;1254;107790;-62
2024/03/01 01:43:54;;;;;;;;;;;;;;;6.70;82.13;101628.85;107605;1254;107520;-64
2024/03/01 01:46:22;;;;;;;;;;;;;;;6.69;82.08;101628.05;107523;1252;97927;-63
2024/03/01 01:48:51;;;;;;;;;;;;;;;6.65;81.84;101631.85;107662;1254;97835;-65
2024/03/01 01:51:20;;;;;;;;;;;;;;;6.60;81.95;101624.45;107560;1251;111762;-64
2024/03/01 01:53:48;;;;;;;;;;;;;;;6.55;81.98;101603.91;107564;1251;108233;-63
2024/03/01 01:56:17;;;;;;;;;;;;;;;6.50;81.94;101616.48;107548;1251;107652;-63
2024/03/01 01:58:46;;;;;;;;;;;;;;;6.45;81.91;101624.61;107555;1251;97859;-64
2024/03/01 02:01:15;;;;;;;;;;;;;;;6.43;81.91;101621.16;107553;1251;97934;-65
2024/03/01 02:03:44;;;;;;;;;;;;;;;6.39;82.28;101629.21;107584;1253;112233;-63
2024/03/01 02:06:12;;;;;;;;;;;;;;;6.37;82.31;101623.98;107603;1254;106997;-65
2024/03/01 02:08:40;;;;;;;;;;;;;;;6.39;82.98;101635.98;107609;1253;107494;-64
2024/03/01 02:11:09;;;;;;;;;;;;;;;6.40;82.49;101636.79;107595;1253;97848;-66
2024/03/01 02:13:37;;;;;;;;;;;;;;;6.43;82.34;101630.59;107571;1256;97990;-64
2024/03/01 02:16:06;;;;;;;;;;;;;;;6.47;82.55;101625.59;107475;1251;112025;-64
2024/03/01 02:18:34;;;;;;;;;;;;;;;6.47;82.36;101618.95;107598;1251;107136;-64
2024/03/01 02:21:06;;;;;;;;;;;;;;;6.46;82.06;101627.04;107593;1254;109518;-63
2024/03/01 02:23:35;;;;;;;;;;;;;;;6.45;82.16;101616.79;107532;1251;97847;-64
2024/03/01 02:26:04;;;;;;;;;;;;;;;6.41;82.78;101604.84;107593;1251;98337;-65
2024/03/01 02:28:33;;;;;;;;;;;;;;;6.36;82.67;101604.98;107615;1254;112632;-62
2024/03/01 02:31:01;;;;;;;;;;;;;;;6.32;82.99;101599.02;107646;1254;108687;-64
2024/03/01 02:33:30;;;;;;;;;;;;;;;6.27;82.99;101601.05;107690;1254;106213;-63
2024/03/01 02:35:58;;;;;;;;;;;;;;;6.24;83.30;101605.09;107580;1256;97861;-65
2024/03/01 02:38:28;;;;;;;;;;;;;;;6.30;83.35;101604.99;107532;1256;97838;-64
2024/03/01 02:40:56;;;;;;;;;;;;;;;6.36;83.47;101617.96;107545;1253;111029;-63
2024/03/01 02:43:24;;;;;;;;;;;;;;;6.40;82.90;101619.73;107500;1252;107941;-65
2024/03/01 02:45:53;;;;;;;;;;;;;;;6.41;82.62;101607.36;107591;1252;107450;-63
2024/03/01 02:48:21;;;;;;;;;;;;;;;6.41;82.53;101613.05;107484;1256;97946;-63
2024/03/01 02:50:49;;;;;;;;;;;;;;;6.40;82.50;101622.71;107583;1252;97823;-63
2024/03/01 02:53:17;;;;;;;;;;;;;;;6.39;82.51;101631.00;107532;1254;111412;-64
2024/03/01 02:55:46;;;;;;;;;;;;;;;6.36;82.45;101619.05;107627;1254;108441;-63
2024/03/01 02:58:14;;;;;;;;;;;;;;;6.35;82.44;101624.48;107537;1254;107828;-64
2024/03/01 03:00:43;;;;;;;;;;;;;;;6.34;82.89;101630.77;107551;1254;97844;-63
2024/03/01 03:03:13;;;;;;;;;;;;;;;6.34;82.67;101619.71;107557;1253;97816;-64
2024/03/01 03:05:41;;;;;;;;;;;;;;;6.30;82.84;101602.28;107520;1254;111693;-65
2024/03/01 03:08:10;;;;;;;;;;;;;;;6.30;82.99;101609.61;107556;1253;108377;-68
2024/03/01 03:10:38;;;;;;;;;;;;;;;6.34;83.11;101614.73;107544;1253;108444;-63
2024/03/01 03:13:07;;;;;;;;;;;;;;;6.38;83.06;101616.11;107457;1253;97829;-66
2024/03/01 03:15:36;;;;;;;;;;;;;;;6.40;82.75;101626.14;107559;1254;97820;-64
2024/03/01 03:18:04;;;;;;;;;;;;;;;6.39;82.46;101630.27;107555;1254;111932;-68
2024/03/01 03:20:35;;;;;;;;;;;;;;;6.39;82.48;101625.66;107494;1253;108539;-65
2024/03/01 03:23:03;;;;;;;;;;;;;;;6.39;82.28;101627.59;107538;1253;107452;-63
2024/03/01 03:25:32;;;;;;;;;;;;;;;6.39;82.09;101636.35;107554;1253;97826;-63
2024/03/01 03:28:00;;;;;;;;;;;;;;;6.38;82.04;101634.23;107664;1253;97932;-62
2024/03/01 03:30:28;;;;;;;;;;;;;;;6.37;82.09;101621.15;107621;1251;111305;-62
2024/03/01 03:32:57;;;;;;;;;;;;;;;6.32;81.88;101627.86;107590;1254;108022;-62
2024/03/01 03:35:25;;;;;;;;;;;;;;;6.28;82.07;101635.34;107602;1256;107300;-63
2024/03/01 03:37:53;;;;;;;;;;;;;;;6.30;82.10;101640.08;107514;1251;98477;-62
2024/03/01 03:40:21;;;;;;;;;;;;;;;6.29;82.20;101633.91;107488;1253;97692;-62
2024/03/01 03:42:49;;;;;;;;;;;;;;;6.27;81.95;101631.14;107598;1254;111930;-63
2024/03/01 03:45:18;;;;;;;;;;;;;;;6.28;81.91;101633.58;107636;1256;109323;-64
2024/03/01 03:47:46;;;;;;;;;;;;;;;6.30;81.88;101635.30;107631;1254;108045;-66
2024/03/01 03:50:15;;;;;;;;;;;;;;;6.31;81.89;101627.52;107626;1254;97744;-63
2024/03/01 03:52:44;;;;;;;;;;;;;;;6.33;81.83;101614.23;107521;1251;97950;-66
2024/03/01 03:55:12;;;;;;;;;;;;;;;6.35;81.80;101633.74;107495;1254;112313;-64
2024/03/01 03:57:40;;;;;;;;;;;;;;;6.37;82.08;101621.82;107657;1254;107906;-62
2024/03/01 04:00:09;;;;;;;;;;;;;;;6.39;81.79;101630.11;107577;1254;108090;-64
2024/03/01 04:02:38;;;;;;;;;;;;;;;6.37;81.78;101641.10;107609;1253;97833;-64
2024/03/01 04:05:07;;;;;;;;;;;;;;;6.36;81.72;101638.30;107626;1252;97844;-63
2024/03/01 04:07:36;;;;;;;;;;;;;;;6.34;81.56;101625.23;107623;1254;111584;-63
2024/03/01 04:10:09;;;;;;;;;;;;;;;6.31;81.34;101638.07;107634;1251;108282;-67
2024/03/01 04:12:37;;;;;;;;;;;;;;;6.30;81.26;101626.70;107521;1251;108444;-66
2024/03/01 04:15:06;;;;;;;;;;;;;;;6.31;81.40;101617.75;107453;1251;97794;-65
2024/03/01 04:17:34;;;;;;;;;;;;;;;6.29;81.31;101624.96;107569;1251;97739;-65
2024/03/01 04:20:05;;;;;;;;;;;;;;;6.27;81.46;101616.01;107486;1251;111362;-65
2024/03/01 04:22:34;;;;;;;;;;;;;;;6.25;81.33;101629.10;107500;1251;108614;-65
2024/03/01 04:25:05;;;;;;;;;;;;;;;6.25;81.63;101624.98;107497;1251;108542;-66
2024/03/01 04:27:34;;;;;;;;;;;;;;;6.29;81.74;101610.56;107672;1251;98545;-66
2024/03/01 04:30:02;;;;;;;;;;;;;;;6.31;81.71;101619.16;107635;1254;97748;-67
2024/03/01 04:32:30;;;;;;;;;;;;;;;6.32;81.62;101628.02;107654;1254;110371;-64
2024/03/01 04:34:59;;;;;;;;;;;;;;;6.30;81.36;101626.02;107604;1255;108307;-65
2024/03/01 04:37:27;;;;;;;;;;;;;;;6.27;81.42;101613.89;107609;1254;107720;-65
2024/03/01 04:39:56;;;;;;;;;;;;;;;6.25;81.30;101622.85;107688;1252;97909;-65
2024/03/01 04:42:24;;;;;;;;;;;;;;;6.26;81.37;101615.51;107643;1254;97706;-64
2024/03/01 04:44:52;;;;;;;;;;;;;;;6.26;81.26;101621.40;107635;1254;111840;-64
2024/03/01 04:47:21;;;;;;;;;;;;;;;6.25;81.34;101609.67;107633;1253;108651;-63
2024/03/01 04:49:49;;;;;;;;;;;;;;;6.25;81.45;101616.64;107634;1251;107613;-64
2024/03/01 04:52:17;;;;;;;;;;;;;;;6.27;81.48;101618.67;107597;1253;97858;-64
2024/03/01 04:54:47;;;;;;;;;;;;;;;6.30;81.50;101634.04;107458;1251;97736;-64
2024/03/01 04:57:16;;;;;;;;;;;;;;;6.29;81.30;101615.88;107656;1253;110597;-63
2024/03/01 04:59:44;;;;;;;;;;;;;;;6.26;81.25;101594.33;107532;1250;106258;-64
2024/03/01 05:02:12;;;;;;;;;;;;;;;6.22;81.27;101602.94;107509;1251;108304;-66
2024/03/01 05:04:40;;;;;;;;;;;;;;;6.21;81.28;101607.98;107512;1251;97834;-63
2024/03/01 05:07:11;;;;;;;;;;;;;;;6.21;81.24;101615.99;107535;1251;97979;-62
2024/03/01 05:09:42;;;;;;;;;;;;;;;6.20;81.21;101625.29;107546;1251;111246;-65
2024/03/01 05:12:14;;;;;;;;;;;;;;;6.19;80.94;101613.80;107509;1250;107919;-67
2024/03/01 05:14:42;;;;;;;;;;;;;;;6.20;80.90;101615.84;107505;1251;107713;-65
2024/03/01 05:17:11;;;;;;;;;;;;;;;6.21;80.80;101621.52;107471;1251;97831;-65
2024/03/01 05:19:41;;;;;;;;;;;;;;;6.21;80.77;101615.25;107727;1251;97928;-64
2024/03/01 05:22:12;;;;;;;;;;;;;;;6.23;80.78;101615.48;107504;1254;111519;-66
2024/03/01 05:24:41;;;;;;;;;;;;;;;6.23;80.55;101618.53;107498;1251;108744;-65
2024/03/01 05:27:13;;;;;;;;;;;;;;;6.22;80.64;101631.27;107449;1253;107870;-64
2024/03/01 05:29:42;;;;;;;;;;;;;;;6.20;80.57;101638.30;107610;1251;97862;-64
2024/03/01 05:32:10;;;;;;;;;;;;;;;6.20;80.75;101632.95;107541;1251;97862;-64
2024/03/01 05:34:39;;;;;;;;;;;;;;;6.20;80.71;101629.36;107586;1253;110662;-65
2024/03/01 05:37:07;;;;;;;;;;;;;;;6.23;80.72;101631.35;107478;1250;107613;-64
2024/03/01 05:39:36;;;;;;;;;;;;;;;6.25;80.69;101634.43;107459;1250;107584;-65
2024/03/01 05:42:06;;;;;;;;;;;;;;;6.29;80.61;101627.98;107522;1254;97737;-65
2024/03/01 05:44:34;;;;;;;;;;;;;;;6.32;80.52;101636.77;107485;1254;98552;-64
2024/03/01 05:47:04;;;;;;;;;;;;;;;6.35;80.55;101632.10;107516;1256;111021;-66
2024/03/01 05:49:32;;;;;;;;;;;;;;;6.38;80.56;101636.73;107536;1254;108785;-66
2024/03/01 05:52:01;;;;;;;;;;;;;;;6.40;80.54;101626.69;107487;1253;107295;-64
2024/03/01 05:54:29;;;;;;;;;;;;;;;6.41;80.41;101630.00;107603;1253;98005;-65
2024/03/01 05:56:58;;;;;;;;;;;;;;;6.39;80.58;101632.77;107462;1253;97818;-65
2024/03/01 05:59:26;;;;;;;;;;;;;;;6.38;80.55;101636.73;107462;1254;111726;-65
2024/03/01 06:01:54;;;;;;;;;;;;;;;6.41;80.60;101632.48;107583;1254;107853;-64
2024/03/01 06:04:23;;;;;;;;;;;;;;;6.43;80.60;101631.50;107517;1254;107695;-64
2024/03/01 06:06:51;;;;;;;;;;;;;;;6.44;80.58;101629.66;107539;1254;97929;-64
2024/03/01 06:09:20;;;;;;;;;;;;;;;6.45;80.66;101630.63;107528;1254;97836;-66
2024/03/01 06:11:48;;;;;;;;;;;;;;;6.48;80.64;101628.20;107534;1254;113569;-68
2024/03/01 06:14:17;;;;;;;;;;;;;;;6.49;80.70;101630.57;107484;1253;107367;-64
2024/03/01 06:16:47;;;;;;;;;;;;;;;6.52;80.61;101634.02;107565;1254;108920;-64
2024/03/01 06:19:17;;;;;;;;;;;;;;;6.56;80.57;101638.94;107490;1254;97902;-62
2024/03/01 06:21:46;;;;;;;;;;;;;;;6.63;80.60;101640.19;107534;1253;98462;-66
2024/03/01 06:24:14;;;;;;;;;;;;;;;6.69;80.43;101640.35;107496;1254;111263;-66
2024/03/01 06:26:43;;;;;;;;;;;;;;;6.70;80.10;101644.18;107482;1254;108318;-65
2024/03/01 06:29:11;;;;;;;;;;;;;;;6.70;79.59;101647.23;107438;1254;107397;-65
2024/03/01 06:31:39;;;;;;;;;;;;;;;6.69;79.29;101644.64;107455;1252;97923;-65
2024/03/01 06:34:07;;;;;;;;;;;;;;;6.67;79.04;101642.41;107506;1253;97908;-63
2024/03/01 06:36:35;;;;;;;;;;;;;;;6.66;78.99;101646.23;107488;1255;111860;-64
2024/03/01 06:39:04;;;;;;;;;;;;;;;6.66;78.97;101645.34;107523;1251;108395;-66
2024/03/01 06:41:33;;;;;;;;;;;;;;;6.67;79.00;101639.37;107521;1254;107787;-64
2024/03/01 06:44:01;;;;;;;;;;;;;;;6.69;78.74;101636.58;107506;1254;97866;-63
2024/03/01 06:46:30;;;;;;;;;;;;;;;6.69;78.66;101636.02;107450;1253;97976;-65
2024/03/01 06:49:00;;;;;;;;;;;;;;;6.70;78.57;101633.84;107503;1251;111473;-65
2024/03/01 06:51:31;;;;;;;;;;;;;;;6.74;78.55;101634.34;107410;1250;107785;-65
2024/03/01 06:54:00;;;;;;;;;;;;;;;6.78;78.54;101640.31;107388;1251;108337;-64
2024/03/01 06:56:28;;;;;;;;;;;;;;;6.83;78.50;101635.96;107371;1251;97852;-67
2024/03/01 06:58:56;;;;;;;;;;;;;;;6.88;78.40;101639.73;107413;1251;97902;-65
2024/03/01 07:01:25;;;;;;;;;;;;;;;6.93;78.03;101644.31;107461;1253;112050;-64
2024/03/01 07:03:55;;;;;;;;;;;;;;;6.93;77.72;101639.45;107530;1251;108610;-64
2024/03/01 07:06:23;;;;;;;;;;;;;;;6.97;77.68;101639.94;107499;1251;108467;-63
2024/03/01 07:08:51;;;;;;;;;;;;;;;7.00;77.35;101644.59;107479;1251;97842;-63
2024/03/01 07:11:21;;;;;;;;;;;;;;;6.97;76.86;101644.77;107625;1251;97733;-67
2024/03/01 07:13:50;;;;;;;;;;;;;;;6.96;77.09;101642.31;107520;1251;112481;-64
2024/03/01 07:16:18;;;;;;;;;;;;;;;6.99;77.20;101641.79;107519;1253;107705;-63
2024/03/01 07:18:46;;;;;;;;;;;;;;;7.04;77.17;101640.23;107589;1251;107722;-64
2024/03/01 07:21:14;;;;;;;;;;;;;;;7.05;77.03;101637.84;107528;1251;97691;-62
2024/03/01 07:23:43;;;;;;;;;;;;;;;7.05;76.75;101640.34;107558;1251;97818;-63
2024/03/01 07:26:11;;;;;;;;;;;;;;;7.07;76.78;101642.41;107473;1250;110356;-64
2024/03/01 07:28:39;;;;;;;;;;;;;;;7.10;76.92;101644.33;107528;1251;108468;-64
2024/03/01 07:31:08;;;;;;;;;;;;;;;7.12;76.54;101643.18;107517;1254;107665;-66
2024/03/01 07:33:36;;;;;;;;;;;;;;;7.11;76.47;101639.83;107496;1251;97953;-65
2024/03/01 07:36:05;;;;;;;;;;;;;;;7.14;76.29;101639.10;107495;1253;97940;-66
2024/03/01 07:38:33;;;;;;;;;;;;;;;7.17;76.13;101638.05;107647;1254;111796;-64
2024/03/01 07:41:01;;;;;;;;;;;;;;;7.22;76.10;101637.38;107522;1254;107723;-64
2024/03/01 07:43:30;;;;;;;;;;;;;;;7.27;75.91;101632.48;107587;1254;108142;-66
2024/03/01 07:45:59;;;;;;;;;;;;;;;7.29;75.16;101637.14;107544;1250;97852;-64
2024/03/01 07:48:28;;;;;;;;;;;;;;;7.31;75.12;101632.91;107528;1251;97947;-64
2024/03/01 07:50:56;;;;;;;;;;;;;;;7.31;75.06;101636.46;107653;1256;110888;-64
2024/03/01 07:53:24;;;;;;;;;;;;;;;7.35;75.02;101633.77;107528;1251;108462;-63
2024/03/01 07:55:52;;;;;;;;;;;;;;;7.41;75.08;101629.45;107538;1250;107584;-65
2024/03/01 07:58:21;;;;;;;;;;;;;;;7.45;74.42;101625.10;107399;1254;97927;-64
2024/03/01 08:00:52;;;;;;;;;;;;;;;7.45;74.24;101628.69;107522;1254;97953;-63
2024/03/01 08:03:21;;;;;;;;;;;;;;;7.49;73.75;101634.52;107569;1253;111363;-65
2024/03/01 08:05:49;;;;;;;;;;;;;;;7.52;73.66;101635.02;107577;1254;108096;-67
2024/03/01 08:08:38;;;;;;;;;;;;;;;7.56;73.53;101636.21;107562;1252;107795;-66
2024/03/01 08:11:07;;;;;;;;;;;;;;;7.62;73.01;101636.05;107479;1254;97815;-66
2024/03/01 08:13:36;;;;;;;;;;;;;;;7.65;72.90;101634.06;107594;1253;97982;-66
2024/03/01 08:16:13;;;;;;;;;;;;;;;7.67;72.10;101632.52;107577;1254;110735;-65
2024/03/01 08:18:42;;;;;;;;;;;;;;;7.71;72.15;101634.06;107542;1251;107996;-66
2024/03/01 08:21:14;;;;;;;;;;;;;;;7.71;71.81;101630.64;107595;1251;107170;-64
2024/03/01 08:23:43;;;;;;;;;;;;;;;7.75;72.30;101631.12;107531;1254;97856;-63
2024/03/01 08:26:15;;;;;;;;;;;;;;;7.83;72.36;101631.50;107603;1254;97829;-63
2024/03/01 08:28:47;;;;;;;;;;;;;;;7.91;71.98;101626.36;107544;1253;111414;-63
2024/03/01 08:31:21;;;;;;;;;;;;;;;7.97;72.06;101623.45;107540;1254;108425;-63
2024/03/01 08:34:05;;;;;;;;;;;;;;;8.06;72.04;101625.38;107578;1251;107985;-64
2024/03/01 08:36:34;;;;;;;;;;;;;;;8.14;71.54;101627.73;107536;1254;97909;-65
2024/03/01 08:39:07;;;;;;;;;;;;;;;8.16;71.06;101625.84;107583;1251;98280;-65
2024/03/01 08:41:36;;;;;;;;;;;;;;;8.19;71.04;101624.38;107519;1254;111191;-65
2024/03/01 08:44:20;;;;;;;;;;;;;;;8.22;70.79;101629.76;107609;1254;107969;-65
2024/03/01 08:46:49;;;;;;;;;;;;;;;8.27;71.15;101627.25;107184;1254;422190;-65
2024/03/01 08:49:52;;;;;;;;;;;;;;;8.36;71.10;101627.23;107598;1254;97678;-66
2024/03/01 08:52:24;;;;;;;;;;;;;;;8.46;70.99;101625.70;107504;1251;97860;-67
2024/03/01 08:54:54;;;;;;;;;;;;;;;8.49;70.50;101623.36;107556;1254;112223;-64
2024/03/01 08:57:26;;;;;;;;;;;;;;;8.52;70.50;101627.51;107596;1255;108547;-65
2024/03/01 08:59:55;;;;;;;;;;;;;;;8.55;70.52;101629.05;107524;1254;108729;-64
2024/03/01 09:02:23;;;;;;;;;;;;;;;8.59;70.44;101623.94;107607;1253;97819;-63
2024/03/01 09:04:51;;;;;;;;;;;;;;;8.64;70.41;101622.40;107579;1252;97845;-62
2024/03/01 09:07:23;;;;;;;;;;;;;;;8.64;69.81;101617.42;107567;1254;110899;-63
2024/03/01 09:09:52;;;;;;;;;;;;;;;8.63;69.66;101616.55;107622;1251;108292;-63
2024/03/01 09:12:25;;;;;;;;;;;;;;;8.67;69.08;101611.65;107472;1254;108474;-65
2024/03/01 09:15:00;;;;;;;;;;;;;;;8.68;68.06;101608.14;107457;1251;97938;-66
2024/03/01 09:17:31;;;;;;;;;;;;;;;8.70;68.21;101609.64;107572;1256;98024;-67
2024/03/01 09:20:05;;;;;;;;;;;;;;;8.81;68.34;101607.31;107536;1251;110575;-65
2024/03/01 09:22:33;;;;;;;;;;;;;;;8.93;67.02;101613.86;107467;1251;109297;-64
2024/03/01 09:25:07;;;;;;;;;;;;;;;9.01;66.30;101621.88;107433;1253;107884;-66
2024/03/01 09:27:35;;;;;;;;;;;;;;;9.09;65.90;101618.98;107421;1253;97922;-63
2024/03/01 09:30:07;;;;;;;;;;;;;;;9.17;65.99;101607.69;107496;1254;97759;-65
2024/03/01 09:32:35;;;;;;;;;;;;;;;9.29;65.83;101609.23;107453;1253;110325;-65
2024/03/01 09:35:06;;;;;;;;;;;;;;;9.37;65.45;101613.83;107473;1253;108896;-65
2024/03/01 09:37:36;;;;;;;;;;;;;;;9.50;65.59;101616.54;107430;1253;108172;-64
2024/03/01 09:40:24;;;;;;;;;;;;;;;9.61;65.57;101614.70;107415;1256;97877;-66
2024/03/01 09:42:57;;;;;;;;;;;;;;;9.72;64.87;101604.02;107431;1254;97809;-64
2024/03/01 09:45:34;;;;;;;;;;;;;;;9.84;63.88;101605.91;107491;1253;112391;-65
2024/03/01 09:48:25;;;;;;;;;;;;;;;9.88;62.74;101601.14;107520;1254;107467;-64
2024/03/01 09:51:12;;;;;;;;;;;;;;;9.92;63.50;101600.65;107466;1252;108589;-64
2024/03/01 09:53:40;;;;;;;;;;;;;;;10.05;63.48;101593.04;107406;1254;97831;-64
2024/03/01 09:56:28;;;;;;;;;;;;;;;10.18;63.23;101592.50;107604;1251;97791;-66
2024/03/01 09:59:03;;;;;;;;;;;;;;;10.29;62.88;101590.58;107624;1251;111709;-66
2024/03/01 10:01:34;;;;;;;;;;;;;;;10.35;62.94;101585.68;107567;1251;107702;-65
2024/03/01 10:04:14;;;;;;;;;;;;;;;10.43;62.34;101588.55;107579;1254;107151;-65
2024/03/01 10:06:43;;;;;;;;;;;;;;;10.49;62.30;101586.84;107638;1253;97902;-65
2024/03/01 10:09:34;;;;;;;;;;;;;;;10.60;62.25;101582.80;107549;1253;97915;-64
2024/03/01 10:12:12;;;;;;;;;;;;;;;10.72;61.93;101580.59;107569;1255;111109;-64
2024/03/01 10:14:43;;;;;;;;;;;;;;;10.79;60.71;101577.19;107540;1253;108559;-65
2024/03/01 10:17:11;;;;;;;;;;;;;;;10.82;60.36;101576.99;107605;1254;108392;-64
2024/03/01 10:19:54;;;;;;;;;;;;;;;10.74;60.23;101575.29;107562;1252;97910;-65
2024/03/01 10:22:37;;;;;;;;;;;;;;;10.77;60.83;101576.67;107550;1250;98069;-64
2024/03/01 10:25:25;;;;;;;;;;;;;;;10.86;61.20;101577.39;107565;1254;112300;-64
2024/03/01 10:28:09;;;;;;;;;;;;;;;10.92;61.20;101572.45;107574;1256;108890;-63
2024/03/01 10:30:44;;;;;;;;;;;;;;;10.99;60.34;101573.17;107569;1252;108710;-64
2024/03/01 10:33:24;;;;;;;;;;;;;;;11.03;59.79;101571.79;107583;1253;97928;-66
2024/03/01 10:36:08;;;;;;;;;;;;;;;11.08;59.37;101569.44;107579;1251;97854;-65
2024/03/01 10:38:45;;;;;;;;;;;;;;;11.19;58.98;101560.84;107549;1254;112205;-66
2024/03/01 10:41:32;;;;;;;;;;;;;;;11.30;58.41;101562.64;107595;1254;107551;-66
2024/03/01 10:44:04;;;;;;;;;;;;;;;11.50;57.88;101559.34;107564;1254;108165;-65
2024/03/01 10:46:37;;;;;;;;;;;;;;;11.68;58.62;101557.15;107554;1255;97837;-65
2024/03/01 10:49:12;;;;;;;;;;;;;;;11.94;58.36;101556.50;107479;1254;97740;-65
2024/03/01 10:51:47;;;;;;;;;;;;;;;12.16;57.03;101561.17;107520;1255;112128;-63
2024/03/01 10:54:17;;;;;;;;;;;;;;;12.41;57.08;101560.41;107431;1253;107925;-64
2024/03/01 10:56:46;;;;;;;;;;;;;;;12.53;55.42;101554.56;107432;1254;107539;-64
2024/03/01 10:59:22;;;;;;;;;;;;;;;12.49;55.39;101562.42;107395;1253;97814;-67
2024/03/01 11:01:55;;;;;;;;;;;;;;;12.62;55.87;101550.15;107501;1255;97864;-69
2024/03/01 11:04:30;;;;;;;;;;;;;;;12.86;56.16;101538.40;107411;1254;110334;-65
2024/03/01 11:07:02;;;;;;;;;;;;;;;13.08;54.71;101538.34;107453;1254;108000;-65
2024/03/01 11:09:31;;;;;;;;;;;;;;;13.25;55.01;101539.39;107489;1254;108143;-64
2024/03/01 11:12:02;;;;;;;;;;;;;;;13.36;55.03;101531.23;107493;1254;97832;-66
2024/03/01 11:14:32;;;;;;;;;;;;;;;13.41;54.27;101525.40;107489;1254;97837;-65
2024/03/01 11:17:02;;;;;;;;;;;;;;;13.44;54.23;101530.85;107522;1253;112303;-65
2024/03/01 11:19:32;;;;;;;;;;;;;;;13.51;54.51;101529.37;107597;1255;108103;-65
2024/03/01 11:22:21;;;;;;;;;;;;;;;13.59;51.78;101527.91;107461;1253;107823;-65
2024/03/01 11:25:00;;;;;;;;;;;;;;;13.60;52.32;101525.16;107467;1254;97943;-67
2024/03/01 11:27:29;;;;;;;;;;;;;;;13.64;51.32;101516.52;107569;1254;97833;-66
2024/03/01 11:30:04;;;;;;;;;;;;;;;13.60;51.73;101510.23;107468;1254;111310;-68
2024/03/01 11:32:35;;;;;;;;;;;;;;;13.51;51.98;101509.91;107563;1254;107736;-66
2024/03/01 11:35:08;;;;;;;;;;;;;;;13.41;52.08;101507.39;107434;1252;108004;-65
2024/03/01 11:37:41;;;;;;;;;;;;;;;13.27;51.98;101505.72;107397;1256;97928;-67
2024/03/01 11:40:14;;;;;;;;;;;;;;;13.10;51.93;101505.73;107523;1254;97838;-66
2024/03/01 11:42:52;;;;;;;;;;;;;;;12.89;52.55;101504.51;107542;1251;110406;-66
2024/03/01 11:45:26;;;;;;;;;;;;;;;12.86;53.09;101504.95;107537;1251;108583;-67
2024/03/01 11:48:13;;;;;;;;;;;;;;;12.81;52.98;101499.17;107569;1251;107352;-64
2024/03/01 11:51:00;;;;;;;;;;;;;;;12.74;52.79;101499.64;107454;1251;97835;-64
2024/03/01 11:53:47;;;;;;;;;;;;;;;12.67;53.21;101495.06;107461;1254;97737;-64
2024/03/01 11:56:19;;;;;;;;;;;;;;;12.72;53.54;101489.95;107479;1254;112498;-65
2024/03/01 11:59:06;;;;;;;;;;;;;;;12.78;53.45;101492.48;107555;1251;108355;-64
2024/03/01 12:01:52;;;;;;;;;;;;;;;12.83;53.00;101494.53;107467;1254;108206;-65
2024/03/01 12:04:23;;;;;;;;;;;;;;;12.85;53.06;101490.48;107441;1251;97985;-63
2024/03/01 12:07:19;;;;;;;;;;;;;;;12.81;52.10;101491.27;107574;1254;97726;-65
2024/03/01 12:09:54;;;;;;;;;;;;;;;12.74;52.34;101491.73;107653;1253;111715;-63
2024/03/01 12:12:22;;;;;;;;;;;;;;;12.74;51.88;101492.83;107605;1251;108777;-64
2024/03/01 12:14:58;;;;;;;;;;;;;;;12.82;51.46;101488.74;107578;1251;108447;-64
2024/03/01 12:17:34;;;;;;;;;;;;;;;13.00;50.74;101485.54;107531;1250;97837;-63
2024/03/01 12:20:06;;;;;;;;;;;;;;;13.22;50.13;101478.20;107602;1251;97844;-64
2024/03/01 12:22:43;;;;;;;;;;;;;;;13.39;49.25;101483.39;107657;1251;111989;-65
2024/03/01 12:25:16;;;;;;;;;;;;;;;13.43;49.02;101485.56;107618;1251;108264;-68
2024/03/01 12:28:04;;;;;;;;;;;;;;;13.40;49.96;101484.58;107581;1251;108669;-62
2024/03/01 12:30:35;;;;;;;;;;;;;;;13.33;49.88;101474.92;107598;1256;97918;-67
2024/03/01 12:33:26;;;;;;;;;;;;;;;13.30;49.94;101471.70;107574;1254;97803;-64
2024/03/01 12:36:01;;;;;;;;;;;;;;;13.43;49.65;101472.77;107599;1254;111327;-64
2024/03/01 12:38:31;;;;;;;;;;;;;;;13.65;48.96;101470.48;107583;1254;108265;-64
2024/03/01 12:41:09;;;;;;;;;;;;;;;13.83;48.15;101469.52;107565;1254;107687;-64
2024/03/01 12:43:56;;;;;;;;;;;;;;;14.04;48.97;101467.13;107621;1254;97931;-63
2024/03/01 12:46:24;;;;;;;;;;;;;;;14.31;47.79;101464.92;107566;1253;97842;-66